Huambo, Albano Machado Airport (FNHU)

NameAlbano Machado Airport
CityHuambo
CountryAngola
ICAOFNHU
IATANOV
Altitude1703 m
CoordinatesGoogle Map
Live Air TrafficLiveATC.net
METARFNHU 181600Z 06008KT 7000 NSC 28/01 Q1020 RMK FU
2018-08-18 16:00:00 Wind: Northeast (60°) 4.12 m/s - Visibility: 7000 m - Temperature: 28 °C - Dew point: 1 °C - Humidity: 17.3% - Pressure: 1020 hPa
Statistics

The table below shows the detailed information of all flights to/from Huambo, Albano Machado Airport (FNHU).